Newton Center, Massachusetts
Current Conditions -  °F | °C
As of 8:16 AM on Wednesday 22 Oct 2014 (Local Time) from KOWD Reporting Station
Light Rain Light Rain  
Wind Chill: 56°   Ceiling: 500
Heat Index: 56°   Visibility: 4mi
Dew Point: 54°   Wind: 12mph
Humidity: 93%   Direction: 50°NE
Pressure: 29.99"   Gusts: 24mph
Location:  42.32°N, 71.19°W
Report Text: KOWD 221216Z 05010G21KT 4SM -RA BR OVC005 13/12 A2999 RMK AO2 P0001 T01330122
Loading
Personal Weather Stations






























Interactive Weather Map
Tropical Storm Tracking
New forecast layout! Learn more

10-Day Weather Forecast

Advertisements
Track Severe Weather on mobile